createdAt,value
2023-04-18T00:00:27.651Z,444.00
2023-04-18T00:01:27.693Z,443.00
2023-04-18T00:02:27.889Z,440.00
2023-04-18T00:03:27.893Z,440.00
2023-04-18T00:04:28.017Z,439.00
2023-04-18T00:05:27.998Z,438.00
2023-04-18T00:06:27.919Z,439.00
2023-04-18T00:07:27.956Z,439.00
2023-04-18T00:08:28.008Z,439.00
2023-04-18T00:09:28.092Z,439.00
2023-04-18T00:10:28.153Z,439.00
2023-04-18T00:11:28.164Z,439.00
2023-04-18T00:12:28.177Z,441.00
2023-04-18T00:13:28.237Z,444.00
2023-04-18T00:14:28.286Z,443.00
2023-04-18T00:15:28.314Z,439.00
2023-04-18T00:16:28.523Z,441.00
2023-04-18T00:17:28.451Z,440.00
2023-04-18T00:18:28.442Z,440.00
2023-04-18T00:19:28.501Z,439.00
2023-04-18T00:20:28.553Z,438.00
2023-04-18T00:21:28.590Z,437.00
2023-04-18T00:22:28.643Z,438.00
2023-04-18T00:23:28.665Z,439.00
2023-04-18T00:24:28.728Z,439.00
2023-04-18T00:25:28.774Z,440.00
2023-04-18T00:26:28.845Z,442.00
2023-04-18T00:27:28.863Z,443.00
2023-04-18T00:28:28.918Z,447.00
2023-04-18T00:29:28.975Z,451.00
2023-04-18T00:30:29.004Z,451.00
2023-04-18T00:31:29.099Z,452.00
2023-04-18T00:32:29.149Z,452.00
2023-04-18T00:33:29.152Z,454.00
2023-04-18T00:34:29.195Z,454.00
2023-04-18T00:35:29.238Z,451.00
2023-04-18T00:36:29.297Z,451.00
2023-04-18T00:37:29.345Z,450.00
2023-04-18T00:38:29.461Z,451.00
2023-04-18T00:39:29.473Z,449.00
2023-04-18T00:40:29.480Z,446.00
2023-04-18T00:41:29.501Z,446.00
2023-04-18T00:42:29.535Z,447.00
2023-04-18T00:43:29.566Z,448.00
2023-04-18T00:44:29.589Z,449.00
2023-04-18T00:45:29.630Z,446.00
2023-04-18T00:46:29.710Z,446.00
2023-04-18T00:47:29.711Z,447.00
2023-04-18T00:48:29.752Z,447.00
2023-04-18T00:49:29.772Z,450.00
2023-04-18T00:50:29.790Z,449.00
2023-04-18T00:51:29.843Z,451.00
2023-04-18T00:52:29.847Z,452.00
2023-04-18T00:53:29.878Z,447.00
2023-04-18T00:54:29.937Z,448.00
2023-04-18T00:55:29.958Z,445.00
2023-04-18T00:56:29.988Z,445.00
2023-04-18T00:57:30.012Z,445.00
2023-04-18T00:58:30.064Z,444.00
2023-04-18T00:59:30.069Z,444.00
2023-04-18T01:00:30.197Z,444.00
2023-04-18T01:01:30.225Z,443.00
2023-04-18T01:02:30.305Z,441.00
2023-04-18T01:03:30.537Z,441.00
2023-04-18T01:04:30.353Z,442.00
2023-04-18T01:05:30.263Z,445.00
2023-04-18T01:06:30.296Z,444.00
2023-04-18T01:07:30.352Z,446.00
2023-04-18T01:08:30.369Z,445.00
2023-04-18T01:09:30.420Z,446.00
2023-04-18T01:10:30.452Z,444.00
2023-04-18T01:11:30.483Z,444.00
2023-04-18T01:12:30.492Z,442.00
2023-04-18T01:13:30.536Z,441.00
2023-04-18T01:14:30.553Z,442.00
2023-04-18T01:15:30.603Z,442.00
2023-04-18T01:16:30.640Z,443.00
2023-04-18T01:17:30.671Z,440.00
2023-04-18T01:18:30.693Z,442.00
2023-04-18T01:19:30.738Z,442.00
2023-04-18T01:20:30.756Z,441.00
2023-04-18T01:21:30.776Z,438.00
2023-04-18T01:22:30.822Z,438.00
2023-04-18T01:23:30.924Z,438.00
2023-04-18T01:24:30.885Z,437.00
2023-04-18T01:25:30.926Z,437.00
2023-04-18T01:26:30.922Z,438.00
2023-04-18T01:27:30.985Z,439.00
2023-04-18T01:28:31.027Z,437.00
2023-04-18T01:29:31.073Z,436.00
2023-04-18T01:30:31.145Z,436.00
2023-04-18T01:31:31.209Z,437.00
2023-04-18T01:32:31.229Z,436.00
2023-04-18T01:33:31.238Z,436.00
2023-04-18T01:34:31.294Z,438.00
2023-04-18T01:35:31.342Z,439.00
2023-04-18T01:36:31.384Z,442.00
2023-04-18T01:37:31.438Z,444.00
2023-04-18T01:38:31.477Z,444.00
2023-04-18T01:39:31.538Z,441.00
2023-04-18T01:40:31.583Z,441.00
2023-04-18T01:41:31.610Z,439.00
2023-04-18T01:42:31.657Z,439.00
2023-04-18T01:43:31.745Z,437.00
2023-04-18T01:44:31.797Z,436.00
2023-04-18T01:45:31.953Z,435.00
2023-04-18T01:46:31.927Z,435.00
2023-04-18T01:47:31.961Z,438.00
2023-04-18T01:48:31.974Z,436.00
2023-04-18T01:49:32.021Z,437.00
2023-04-18T01:50:32.073Z,437.00
2023-04-18T01:51:32.115Z,438.00
2023-04-18T01:52:32.160Z,437.00
2023-04-18T01:53:32.204Z,433.00
2023-04-18T01:54:32.252Z,433.00
2023-04-18T01:55:32.281Z,431.00
2023-04-18T01:56:32.352Z,432.00
2023-04-18T01:57:32.380Z,429.00
2023-04-18T01:58:32.448Z,426.00
2023-04-18T01:59:32.504Z,427.00
2023-04-18T02:00:32.544Z,429.00
2023-04-18T02:01:32.597Z,430.00
2023-04-18T02:02:32.729Z,436.00
2023-04-18T02:03:32.869Z,438.00
2023-04-18T02:04:32.751Z,436.00
2023-04-18T02:05:32.771Z,438.00
2023-04-18T02:06:32.836Z,439.00
2023-04-18T02:07:32.953Z,441.00
2023-04-18T02:08:32.928Z,439.00
2023-04-18T02:09:32.955Z,441.00
2023-04-18T02:10:32.991Z,443.00
2023-04-18T02:11:33.057Z,445.00
2023-04-18T02:12:33.079Z,445.00
2023-04-18T02:13:33.156Z,445.00
2023-04-18T02:14:33.170Z,446.00
2023-04-18T02:15:33.237Z,445.00
2023-04-18T02:16:33.363Z,449.00
2023-04-18T02:17:33.317Z,447.00
2023-04-18T02:18:33.389Z,450.00
2023-04-18T02:19:33.387Z,449.00
2023-04-18T02:20:33.436Z,448.00
2023-04-18T02:21:33.492Z,448.00
2023-04-18T02:22:33.518Z,447.00
2023-04-18T02:23:33.573Z,445.00
2023-04-18T02:24:33.652Z,444.00
2023-04-18T02:25:33.647Z,445.00
2023-04-18T02:26:33.696Z,445.00
2023-04-18T02:27:33.750Z,446.00
2023-04-18T02:28:33.823Z,444.00
2023-04-18T02:29:33.868Z,443.00
2023-04-18T02:30:34.004Z,440.00
2023-04-18T02:31:33.957Z,439.00
2023-04-18T02:32:33.995Z,441.00
2023-04-18T02:33:34.016Z,441.00
2023-04-18T02:34:34.103Z,441.00
2023-04-18T02:35:34.137Z,441.00
2023-04-18T02:36:34.170Z,443.00
2023-04-18T02:37:34.193Z,443.00
2023-04-18T02:38:34.253Z,443.00
2023-04-18T02:39:34.307Z,443.00
2023-04-18T02:40:34.341Z,443.00
2023-04-18T02:41:34.381Z,445.00
2023-04-18T02:42:34.452Z,444.00
2023-04-18T02:43:34.477Z,443.00
2023-04-18T02:44:34.555Z,443.00
2023-04-18T02:45:34.624Z,443.00
2023-04-18T02:46:34.626Z,442.00
2023-04-18T02:47:43.832Z,442.00
2023-04-18T02:48:35.735Z,438.00
2023-04-18T02:49:34.688Z,438.00
2023-04-18T02:50:34.656Z,437.00
2023-04-18T02:51:34.637Z,436.00
2023-04-18T02:52:34.629Z,436.00
2023-04-18T02:53:34.623Z,435.00
2023-04-18T02:54:34.664Z,437.00
2023-04-18T02:55:34.620Z,440.00
2023-04-18T02:56:34.614Z,442.00
2023-04-18T02:57:34.649Z,444.00
2023-04-18T02:58:34.672Z,445.00
2023-04-18T02:59:34.767Z,445.00
2023-04-18T03:00:34.786Z,446.00
2023-04-18T03:01:34.830Z,442.00
2023-04-18T03:02:35.042Z,442.00
2023-04-18T03:03:35.129Z,440.00
2023-04-18T03:04:35.004Z,437.00
2023-04-18T03:05:35.005Z,434.00
2023-04-18T03:06:35.067Z,431.00
2023-04-18T03:07:35.113Z,431.00
2023-04-18T03:08:35.140Z,433.00
2023-04-18T03:09:35.209Z,438.00
2023-04-18T03:10:35.244Z,439.00
2023-04-18T03:11:35.310Z,443.00
2023-04-18T03:12:35.322Z,442.00
2023-04-18T03:13:35.420Z,443.00
2023-04-18T03:14:35.453Z,442.00
2023-04-18T03:15:35.508Z,442.00
2023-04-18T03:16:35.532Z,442.00
2023-04-18T03:17:35.581Z,440.00
2023-04-18T03:18:35.619Z,440.00
2023-04-18T03:19:35.674Z,441.00
2023-04-18T03:20:35.702Z,442.00
2023-04-18T03:21:35.748Z,442.00
2023-04-18T03:22:35.808Z,442.00
2023-04-18T03:23:35.843Z,441.00
2023-04-18T03:24:35.931Z,441.00
2023-04-18T03:25:35.964Z,441.00
2023-04-18T03:26:35.997Z,442.00
2023-04-18T03:27:36.053Z,443.00
2023-04-18T03:28:36.112Z,441.00
2023-04-18T03:29:36.178Z,442.00
2023-04-18T03:30:36.201Z,441.00
2023-04-18T03:31:36.306Z,440.00
2023-04-18T03:32:36.384Z,442.00
2023-04-18T03:33:36.343Z,443.00
2023-04-18T03:34:36.432Z,440.00
2023-04-18T03:35:36.461Z,440.00
2023-04-18T03:36:36.529Z,438.00
2023-04-18T03:37:36.560Z,436.00
2023-04-18T03:38:36.612Z,434.00
2023-04-18T03:39:36.680Z,435.00
2023-04-18T03:40:36.707Z,437.00
2023-04-18T03:41:36.742Z,435.00
2023-04-18T03:42:36.812Z,437.00
2023-04-18T03:43:36.848Z,437.00
2023-04-18T03:44:36.946Z,438.00
2023-04-18T03:45:36.951Z,438.00
2023-04-18T03:46:37.087Z,438.00
2023-04-18T03:47:37.070Z,438.00
2023-04-18T03:48:37.303Z,442.00
2023-04-18T03:49:37.159Z,442.00
2023-04-18T03:50:37.243Z,443.00
2023-04-18T03:51:37.269Z,444.00
2023-04-18T03:52:37.308Z,444.00
2023-04-18T03:53:37.366Z,445.00
2023-04-18T03:54:37.423Z,442.00
2023-04-18T03:55:37.472Z,440.00
2023-04-18T03:56:37.512Z,439.00
2023-04-18T03:57:37.590Z,438.00
2023-04-18T03:58:37.650Z,438.00
2023-04-18T03:59:37.714Z,439.00
2023-04-18T04:00:37.716Z,440.00
2023-04-18T04:01:37.799Z,441.00
2023-04-18T04:02:37.932Z,440.00
2023-04-18T04:03:37.991Z,440.00
2023-04-18T04:04:38.006Z,442.00
2023-04-18T04:05:37.988Z,440.00
2023-04-18T04:06:38.022Z,439.00
2023-04-18T04:07:38.083Z,439.00
2023-04-18T04:08:38.133Z,439.00
2023-04-18T04:09:38.210Z,437.00
2023-04-18T04:10:38.242Z,438.00
2023-04-18T04:11:38.318Z,436.00
2023-04-18T04:12:38.382Z,435.00
2023-04-18T04:13:38.398Z,435.00
2023-04-18T04:14:38.468Z,436.00
2023-04-18T04:15:38.518Z,437.00
2023-04-18T04:16:38.676Z,439.00
2023-04-18T04:17:38.642Z,440.00
2023-04-18T04:18:38.655Z,440.00
2023-04-18T04:19:38.747Z,439.00
2023-04-18T04:20:38.769Z,437.00
2023-04-18T04:21:38.827Z,438.00
2023-04-18T04:22:38.887Z,439.00
2023-04-18T04:23:38.937Z,438.00
2023-04-18T04:24:38.987Z,437.00
2023-04-18T04:25:39.037Z,438.00
2023-04-18T04:26:39.076Z,440.00
2023-04-18T04:27:39.141Z,439.00
2023-04-18T04:28:39.171Z,438.00
2023-04-18T04:29:39.277Z,437.00
2023-04-18T04:30:39.289Z,437.00
2023-04-18T04:31:39.410Z,440.00
2023-04-18T04:32:39.403Z,442.00
2023-04-18T04:33:39.432Z,442.00
2023-04-18T04:34:39.493Z,441.00
2023-04-18T04:35:39.548Z,442.00
2023-04-18T04:36:39.616Z,444.00
2023-04-18T04:37:39.622Z,444.00
2023-04-18T04:38:39.675Z,445.00
2023-04-18T04:39:39.785Z,445.00
2023-04-18T04:40:39.813Z,445.00
2023-04-18T04:41:39.843Z,445.00
2023-04-18T04:42:39.900Z,446.00
2023-04-18T04:43:39.929Z,445.00
2023-04-18T04:44:40.071Z,443.00
2023-04-18T04:45:40.088Z,444.00
2023-04-18T04:46:40.092Z,446.00
2023-04-18T04:47:40.182Z,445.00
2023-04-18T04:48:40.178Z,445.00
2023-04-18T04:49:40.232Z,443.00
2023-04-18T04:50:40.343Z,445.00
2023-04-18T04:51:40.360Z,444.00
2023-04-18T04:52:40.414Z,445.00
2023-04-18T04:53:40.446Z,443.00
2023-04-18T04:54:40.497Z,442.00
2023-04-18T04:55:40.537Z,439.00
2023-04-18T04:56:40.588Z,439.00
2023-04-18T04:57:40.667Z,440.00
2023-04-18T04:58:40.681Z,440.00
2023-04-18T04:59:40.764Z,439.00
2023-04-18T05:00:40.790Z,438.00
2023-04-18T05:01:40.883Z,437.00
2023-04-18T05:02:41.029Z,436.00
2023-04-18T05:03:41.060Z,437.00
2023-04-18T05:04:41.049Z,438.00
2023-04-18T05:05:41.016Z,438.00
2023-04-18T05:06:41.074Z,437.00
2023-04-18T05:07:41.149Z,439.00
2023-04-18T05:08:41.158Z,442.00
2023-04-18T05:09:41.206Z,445.00
2023-04-18T05:10:41.279Z,445.00
2023-04-18T05:11:41.310Z,447.00
2023-04-18T05:12:41.379Z,448.00
2023-04-18T05:13:41.422Z,446.00
2023-04-18T05:14:41.466Z,446.00
2023-04-18T05:15:41.547Z,445.00
2023-04-18T05:16:41.652Z,445.00
2023-04-18T05:17:41.709Z,446.00
2023-04-18T05:18:41.692Z,446.00
2023-04-18T05:19:41.757Z,445.00
2023-04-18T05:20:41.767Z,446.00
2023-04-18T05:21:41.836Z,445.00
2023-04-18T05:22:41.887Z,445.00
2023-04-18T05:23:41.957Z,444.00
2023-04-18T05:24:41.994Z,443.00
2023-04-18T05:25:42.040Z,445.00
2023-04-18T05:26:42.084Z,447.00
2023-04-18T05:27:42.108Z,446.00
2023-04-18T05:28:42.152Z,449.00
2023-04-18T05:29:42.200Z,453.00
2023-04-18T05:30:42.277Z,457.00
2023-04-18T05:31:42.269Z,465.00
2023-04-18T05:32:42.371Z,487.00
2023-04-18T05:33:42.348Z,507.00
2023-04-18T05:34:42.373Z,530.00
2023-04-18T05:35:42.443Z,537.00
2023-04-18T05:36:42.489Z,545.00
2023-04-18T05:37:42.524Z,563.00
2023-04-18T05:38:42.586Z,597.00
2023-04-18T05:39:42.636Z,571.00
2023-04-18T05:40:42.618Z,543.00
2023-04-18T05:41:42.653Z,528.00
2023-04-18T05:42:42.695Z,513.00
2023-04-18T05:43:44.477Z,508.00
2023-04-18T05:44:43.751Z,519.00
2023-04-18T05:45:42.765Z,588.00
2023-04-18T05:46:42.848Z,617.00
2023-04-18T05:47:42.762Z,660.00
2023-04-18T05:48:42.739Z,655.00
2023-04-18T05:49:42.733Z,651.00
2023-04-18T05:50:42.729Z,652.00
2023-04-18T05:51:42.720Z,657.00
2023-04-18T05:52:42.702Z,663.00
2023-04-18T05:53:42.708Z,673.00
2023-04-18T05:54:42.680Z,682.00
2023-04-18T05:55:42.747Z,723.00
2023-04-18T05:56:42.680Z,750.00
2023-04-18T05:57:42.675Z,750.00
2023-04-18T05:58:42.739Z,750.00
2023-04-18T05:59:42.793Z,785.00
2023-04-18T06:00:42.821Z,812.00
2023-04-18T06:01:42.846Z,831.00
2023-04-18T06:02:43.072Z,852.00
2023-04-18T06:03:43.539Z,868.00
2023-04-18T06:04:43.092Z,883.00
2023-04-18T06:05:43.032Z,887.00
2023-04-18T06:06:43.018Z,900.00
2023-04-18T06:07:43.033Z,926.00
2023-04-18T06:08:43.027Z,944.00
2023-04-18T06:09:43.124Z,943.00
2023-04-18T06:10:43.089Z,954.00
2023-04-18T06:11:43.104Z,971.00
2023-04-18T06:12:43.117Z,986.00
2023-04-18T06:13:43.236Z,996.00
2023-04-18T06:14:43.128Z,997.00
2023-04-18T06:15:43.178Z,1005.00
2023-04-18T06:16:43.232Z,1009.00
2023-04-18T06:17:43.175Z,1001.00
2023-04-18T06:18:43.158Z,997.00
2023-04-18T06:19:43.169Z,997.00
2023-04-18T06:20:43.182Z,1016.00
2023-04-18T06:21:43.168Z,1055.00
2023-04-18T06:22:43.159Z,1063.00
2023-04-18T06:23:43.160Z,1062.00
2023-04-18T06:24:43.151Z,1062.00
2023-04-18T06:25:43.125Z,1063.00
2023-04-18T06:26:43.139Z,1066.00
2023-04-18T06:27:43.136Z,1071.00
2023-04-18T06:28:43.130Z,1081.00
2023-04-18T06:29:43.178Z,1014.00
2023-04-18T06:30:43.175Z,1052.00
2023-04-18T06:31:43.244Z,1033.00
2023-04-18T06:32:43.239Z,1065.00
2023-04-18T06:33:43.230Z,1077.00
2023-04-18T06:34:43.236Z,1084.00
2023-04-18T06:35:43.274Z,1088.00
2023-04-18T06:36:43.291Z,1098.00
2023-04-18T06:37:43.337Z,1101.00
2023-04-18T06:38:43.394Z,1127.00
2023-04-18T06:39:43.450Z,1156.00
2023-04-18T06:40:43.482Z,1048.00
2023-04-18T06:41:43.704Z,1009.00
2023-04-18T06:42:43.515Z,985.00
2023-04-18T06:43:52.389Z,908.00
2023-04-18T06:44:44.502Z,891.00
2023-04-18T06:45:43.480Z,872.00
2023-04-18T06:46:43.452Z,866.00
2023-04-18T06:47:43.531Z,854.00
2023-04-18T06:48:43.471Z,833.00
2023-04-18T06:49:43.452Z,827.00
2023-04-18T06:50:43.565Z,963.00
2023-04-18T06:51:43.447Z,862.00
2023-04-18T06:52:43.423Z,845.00
2023-04-18T06:53:43.410Z,947.00
2023-04-18T06:54:43.449Z,971.00
2023-04-18T06:55:43.422Z,993.00
2023-04-18T06:56:43.394Z,858.00
2023-04-18T06:57:43.405Z,890.00
2023-04-18T06:58:43.770Z,977.00
2023-04-18T06:59:43.363Z,901.00
2023-04-18T07:00:43.422Z,879.00
2023-04-18T07:01:43.377Z,909.00
2023-04-18T07:02:43.481Z,911.00
2023-04-18T07:03:43.890Z,809.00
2023-04-18T07:04:43.382Z,928.00
2023-04-18T07:05:43.333Z,975.00
2023-04-18T07:06:43.316Z,924.00
2023-04-18T07:07:43.303Z,957.00
2023-04-18T07:08:43.294Z,894.00
2023-04-18T07:09:43.303Z,992.00
2023-04-18T07:10:43.305Z,909.00
2023-04-18T07:11:43.289Z,976.00
2023-04-18T07:12:43.288Z,981.00
2023-04-18T07:13:43.260Z,1020.00
2023-04-18T07:14:43.262Z,1010.00
2023-04-18T07:15:43.253Z,1009.00
2023-04-18T07:16:43.301Z,1033.00
2023-04-18T07:17:43.266Z,1045.00
2023-04-18T07:18:43.217Z,1049.00
2023-04-18T07:19:43.232Z,1049.00
2023-04-18T07:20:43.204Z,1039.00
2023-04-18T07:21:43.197Z,983.00
2023-04-18T07:22:43.263Z,923.00
2023-04-18T07:23:43.258Z,974.00
2023-04-18T07:24:43.266Z,1027.00
2023-04-18T07:25:43.354Z,1028.00
2023-04-18T07:26:43.364Z,1031.00
2023-04-18T07:27:43.411Z,981.00
2023-04-18T07:28:43.460Z,968.00
2023-04-18T07:29:43.513Z,907.00
2023-04-18T07:30:43.540Z,858.00
2023-04-18T07:31:43.520Z,799.00
2023-04-18T07:32:43.568Z,802.00
2023-04-18T07:33:43.638Z,813.00
2023-04-18T07:34:43.793Z,821.00
2023-04-18T07:35:43.779Z,826.00
2023-04-18T07:36:43.555Z,841.00
2023-04-18T07:37:43.593Z,850.00
2023-04-18T07:38:43.745Z,825.00
2023-04-18T07:39:43.609Z,849.00
2023-04-18T07:40:43.780Z,868.00
2023-04-18T07:41:43.620Z,877.00
2023-04-18T07:42:43.614Z,956.00
2023-04-18T07:43:43.637Z,954.00
2023-04-18T07:44:43.762Z,928.00
2023-04-18T07:45:43.625Z,1007.00
2023-04-18T07:46:43.685Z,1015.00
2023-04-18T07:47:43.657Z,1023.00
2023-04-18T07:48:43.614Z,1009.00
2023-04-18T07:49:43.789Z,962.00
2023-04-18T07:50:43.707Z,986.00
2023-04-18T07:51:43.725Z,1029.00
2023-04-18T07:52:43.801Z,1035.00
2023-04-18T07:53:43.840Z,1040.00
2023-04-18T07:54:43.997Z,1031.00
2023-04-18T07:55:43.978Z,1031.00
2023-04-18T07:56:44.036Z,956.00
2023-04-18T07:57:45.800Z,985.00
2023-04-18T07:58:44.166Z,1023.00
2023-04-18T07:59:44.223Z,1032.00
2023-04-18T08:00:44.248Z,1034.00
2023-04-18T08:01:44.301Z,1045.00
2023-04-18T08:02:44.456Z,1052.00
2023-04-18T08:03:44.507Z,1055.00
2023-04-18T08:04:44.587Z,1055.00
2023-04-18T08:05:44.529Z,1054.00
2023-04-18T08:06:44.566Z,1002.00
2023-04-18T08:07:44.632Z,1020.00
2023-04-18T08:08:44.671Z,1033.00
2023-04-18T08:09:44.730Z,1036.00
2023-04-18T08:10:44.881Z,1039.00
2023-04-18T08:11:44.800Z,1043.00
2023-04-18T08:12:44.848Z,1048.00
2023-04-18T08:13:44.918Z,1054.00
2023-04-18T08:14:45.292Z,1060.00
2023-04-18T08:15:45.029Z,1060.00
2023-04-18T08:16:45.074Z,1062.00
2023-04-18T08:17:45.247Z,1063.00
2023-04-18T08:18:45.827Z,1066.00
2023-04-18T08:19:45.323Z,1074.00
2023-04-18T08:20:45.311Z,1079.00
2023-04-18T08:21:45.239Z,1049.00
2023-04-18T08:23:02.314Z,1037.00
2023-04-18T08:23:46.262Z,960.00
2023-04-18T08:24:57.468Z,946.00
2023-04-18T08:25:46.260Z,914.00
2023-04-18T08:26:45.461Z,854.00
2023-04-18T08:27:45.228Z,841.00
2023-04-18T08:28:46.496Z,833.00
2023-04-18T08:29:45.298Z,818.00
2023-04-18T08:30:45.222Z,805.00
2023-04-18T08:31:45.237Z,750.00
2023-04-18T08:32:45.239Z,731.00
2023-04-18T08:33:45.197Z,719.00
2023-04-18T08:34:45.192Z,730.00
2023-04-18T08:35:45.172Z,756.00
2023-04-18T08:36:45.159Z,704.00
2023-04-18T08:37:45.158Z,673.00
2023-04-18T08:38:45.169Z,637.00
2023-04-18T08:39:45.158Z,661.00
2023-04-18T08:40:45.133Z,673.00
2023-04-18T08:41:45.174Z,685.00
2023-04-18T08:42:45.243Z,701.00
2023-04-18T08:43:45.212Z,796.00
2023-04-18T08:44:45.246Z,824.00
2023-04-18T08:45:45.260Z,846.00
2023-04-18T08:46:45.210Z,965.00
2023-04-18T08:47:45.298Z,1023.00
2023-04-18T08:48:45.325Z,1035.00
2023-04-18T08:49:45.363Z,1048.00
2023-04-18T08:50:45.410Z,1071.00
2023-04-18T08:51:45.469Z,1090.00
2023-04-18T08:52:45.520Z,1121.00
2023-04-18T08:53:45.552Z,1162.00
2023-04-18T08:54:45.603Z,1219.00
2023-04-18T08:55:45.640Z,1230.00
2023-04-18T08:56:45.813Z,1322.00
2023-04-18T08:57:45.727Z,1332.00
2023-04-18T08:58:45.996Z,1328.00
2023-04-18T08:59:47.176Z,1334.00
2023-04-18T09:00:45.769Z,1342.00
2023-04-18T09:01:45.831Z,1351.00
2023-04-18T09:02:45.825Z,1355.00
2023-04-18T09:03:45.763Z,1356.00
2023-04-18T09:04:45.759Z,1354.00
2023-04-18T09:05:45.733Z,1350.00
2023-04-18T09:06:45.802Z,1351.00
2023-04-18T09:07:45.711Z,1356.00
2023-04-18T09:08:45.714Z,1363.00
2023-04-18T09:09:45.729Z,1365.00
2023-04-18T09:10:46.837Z,1363.00
2023-04-18T09:11:45.813Z,1361.00
2023-04-18T09:12:45.699Z,1358.00
2023-04-18T09:13:45.684Z,1354.00
2023-04-18T09:14:45.714Z,1350.00
2023-04-18T09:15:45.690Z,1352.00
2023-04-18T09:16:45.866Z,1356.00
2023-04-18T09:17:45.678Z,1352.00
2023-04-18T09:18:45.637Z,1353.00
2023-04-18T09:19:45.634Z,1352.00
2023-04-18T09:20:45.628Z,1353.00
2023-04-18T09:21:45.816Z,1353.00
2023-04-18T09:22:45.617Z,1357.00
2023-04-18T09:23:45.611Z,1356.00
2023-04-18T09:24:45.618Z,1350.00
2023-04-18T09:25:45.812Z,1350.00
2023-04-18T09:26:45.580Z,1347.00
2023-04-18T09:27:45.586Z,1341.00
2023-04-18T09:28:45.585Z,1285.00
2023-04-18T09:29:45.591Z,1375.00
2023-04-18T09:30:46.071Z,1346.00
2023-04-18T09:31:45.829Z,1339.00
2023-04-18T09:32:45.559Z,1346.00
2023-04-18T09:33:45.540Z,1362.00
2023-04-18T09:34:45.535Z,1359.00
2023-04-18T09:35:45.551Z,1361.00
2023-04-18T09:36:45.847Z,1369.00
2023-04-18T09:37:45.516Z,1377.00
2023-04-18T09:38:45.500Z,1377.00
2023-04-18T09:39:45.508Z,1342.00
2023-04-18T09:40:45.487Z,1360.00
2023-04-18T09:41:45.837Z,1370.00
2023-04-18T09:42:45.465Z,1369.00
2023-04-18T09:43:45.468Z,1372.00
2023-04-18T09:44:45.458Z,1373.00
2023-04-18T09:45:45.498Z,1371.00
2023-04-18T09:46:47.366Z,1369.00
2023-04-18T09:47:45.495Z,1366.00
2023-04-18T09:48:45.447Z,1364.00
2023-04-18T09:49:45.432Z,1362.00
2023-04-18T09:50:46.328Z,1211.00
2023-04-18T09:51:45.838Z,1296.00
2023-04-18T09:52:45.422Z,1277.00
2023-04-18T09:53:45.410Z,1261.00
2023-04-18T09:54:47.682Z,1258.00
2023-04-18T09:55:45.372Z,1216.00
2023-04-18T09:56:45.384Z,1227.00
2023-04-18T09:57:45.364Z,1215.00
2023-04-18T09:58:45.384Z,1214.00
2023-04-18T09:59:45.357Z,1204.00
2023-04-18T10:00:46.985Z,1187.00
2023-04-18T10:01:45.380Z,1161.00
2023-04-18T10:02:45.516Z,1136.00
2023-04-18T10:03:45.407Z,1048.00
2023-04-18T10:04:45.388Z,983.00
2023-04-18T10:05:45.377Z,994.00
2023-04-18T10:06:45.307Z,983.00
2023-04-18T10:07:45.295Z,983.00
2023-04-18T10:08:45.284Z,995.00
2023-04-18T10:09:45.287Z,985.00
2023-04-18T10:10:45.259Z,969.00
2023-04-18T10:11:45.273Z,957.00
2023-04-18T10:12:45.257Z,969.00
2023-04-18T10:13:45.245Z,972.00
2023-04-18T10:14:45.243Z,977.00
2023-04-18T10:15:45.497Z,958.00
2023-04-18T10:16:45.236Z,991.00
2023-04-18T10:17:56.112Z,1020.00
2023-04-18T10:18:46.243Z,1024.00
2023-04-18T10:19:45.210Z,1025.00
2023-04-18T10:20:45.205Z,1027.00
2023-04-18T10:21:45.337Z,1027.00
2023-04-18T10:22:45.196Z,1012.00
2023-04-18T10:23:45.176Z,913.00
2023-04-18T10:24:45.167Z,1002.00
2023-04-18T10:25:45.151Z,929.00
2023-04-18T10:26:45.337Z,990.00
2023-04-18T10:27:45.150Z,1019.00
2023-04-18T10:28:45.976Z,1065.00
2023-04-18T10:29:45.125Z,1073.00
2023-04-18T10:30:45.137Z,1080.00
2023-04-18T10:31:45.164Z,1085.00
2023-04-18T10:32:45.157Z,1090.00
2023-04-18T10:33:49.749Z,1088.00
2023-04-18T10:34:46.200Z,913.00
2023-04-18T10:35:45.126Z,874.00
2023-04-18T10:36:45.098Z,783.00
2023-04-18T10:37:45.078Z,771.00
2023-04-18T10:38:45.084Z,751.00
2023-04-18T10:39:45.074Z,750.00
2023-04-18T10:40:45.384Z,759.00
2023-04-18T10:41:45.059Z,780.00
2023-04-18T10:42:45.054Z,786.00
2023-04-18T10:43:45.031Z,846.00
2023-04-18T10:44:45.051Z,857.00
2023-04-18T10:45:45.047Z,864.00
2023-04-18T10:46:45.230Z,872.00
2023-04-18T10:47:45.222Z,884.00
2023-04-18T10:48:45.146Z,901.00
2023-04-18T10:49:45.197Z,924.00
2023-04-18T10:50:45.205Z,939.00
2023-04-18T10:51:45.252Z,952.00
2023-04-18T10:52:45.215Z,963.00
2023-04-18T10:53:45.245Z,978.00
2023-04-18T10:54:45.234Z,994.00
2023-04-18T10:55:45.265Z,997.00
2023-04-18T10:56:45.279Z,1003.00
2023-04-18T10:57:45.228Z,1010.00
2023-04-18T10:58:45.235Z,1020.00
2023-04-18T10:59:45.252Z,1025.00
2023-04-18T11:00:45.312Z,1033.00
2023-04-18T11:01:45.268Z,1043.00
2023-04-18T11:02:45.404Z,1050.00
2023-04-18T11:03:45.337Z,1062.00
2023-04-18T11:04:45.319Z,1063.00
2023-04-18T11:05:45.325Z,1069.00
2023-04-18T11:06:45.445Z,1077.00
2023-04-18T11:07:45.401Z,1095.00
2023-04-18T11:08:45.428Z,1105.00
2023-04-18T11:09:45.577Z,1111.00
2023-04-18T11:10:45.523Z,1118.00
2023-04-18T11:11:45.612Z,1121.00
2023-04-18T11:12:45.621Z,1123.00
2023-04-18T11:13:45.672Z,1128.00
2023-04-18T11:14:45.740Z,1132.00
2023-04-18T11:15:45.816Z,1133.00
2023-04-18T11:16:46.372Z,1118.00
2023-04-18T11:17:45.961Z,1108.00
2023-04-18T11:18:45.986Z,1095.00
2023-04-18T11:19:46.059Z,1098.00
2023-04-18T11:20:46.102Z,1122.00
2023-04-18T11:21:46.146Z,1129.00
2023-04-18T11:22:46.178Z,1132.00
2023-04-18T11:23:46.216Z,1133.00
2023-04-18T11:24:46.236Z,1133.00
2023-04-18T11:25:46.277Z,1132.00
2023-04-18T11:26:46.320Z,1132.00
2023-04-18T11:27:46.318Z,1127.00
2023-04-18T11:28:46.342Z,1117.00
2023-04-18T11:29:46.346Z,1113.00
2023-04-18T11:30:46.360Z,1106.00
2023-04-18T11:31:46.416Z,1095.00
2023-04-18T11:32:46.432Z,1092.00
2023-04-18T11:33:46.372Z,1083.00
2023-04-18T11:34:46.385Z,1068.00
2023-04-18T11:35:46.419Z,1061.00
2023-04-18T11:36:46.384Z,1048.00
2023-04-18T11:37:46.385Z,1043.00
2023-04-18T11:38:46.442Z,1032.00
2023-04-18T11:39:46.368Z,1021.00
2023-04-18T11:40:46.391Z,1013.00
2023-04-18T11:41:46.357Z,999.00
2023-04-18T11:42:46.367Z,980.00
2023-04-18T11:43:46.441Z,854.00
2023-04-18T11:44:46.376Z,801.00
2023-04-18T11:45:46.371Z,726.00
2023-04-18T11:46:46.382Z,718.00
2023-04-18T11:47:46.499Z,695.00
2023-04-18T11:48:46.400Z,717.00
2023-04-18T11:49:46.394Z,647.00
2023-04-18T11:50:46.425Z,716.00
2023-04-18T11:51:46.437Z,728.00
2023-04-18T11:52:46.464Z,730.00
2023-04-18T11:53:46.465Z,736.00
2023-04-18T11:54:46.477Z,731.00
2023-04-18T11:55:46.507Z,660.00
2023-04-18T11:56:46.543Z,637.00
2023-04-18T11:57:46.555Z,646.00
2023-04-18T11:58:46.579Z,681.00
2023-04-18T11:59:46.599Z,703.00
2023-04-18T12:00:46.601Z,711.00
2023-04-18T12:01:46.794Z,709.00
2023-04-18T12:02:46.753Z,698.00
2023-04-18T12:03:46.844Z,697.00
2023-04-18T12:04:46.878Z,701.00
2023-04-18T12:05:46.936Z,703.00
2023-04-18T12:06:46.875Z,701.00
2023-04-18T12:07:46.761Z,706.00
2023-04-18T12:08:46.770Z,712.00
2023-04-18T12:09:46.764Z,710.00
2023-04-18T12:10:46.844Z,711.00
2023-04-18T12:11:46.800Z,705.00
2023-04-18T12:12:46.817Z,703.00
2023-04-18T12:13:46.830Z,698.00
2023-04-18T12:14:46.850Z,700.00
2023-04-18T12:15:46.963Z,698.00
2023-04-18T12:16:46.897Z,696.00
2023-04-18T12:17:46.921Z,695.00
2023-04-18T12:18:46.888Z,691.00
2023-04-18T12:19:49.278Z,691.00
2023-04-18T12:20:46.931Z,687.00
2023-04-18T12:21:47.386Z,684.00
2023-04-18T12:22:46.880Z,678.00